createdAt,value
2022-11-05T00:01:38.516Z,79.70
2022-11-05T00:04:00.077Z,79.55
2022-11-05T00:06:28.995Z,78.95
2022-11-05T00:08:49.325Z,79.02
2022-11-05T00:10:51.939Z,79.02
2022-11-05T00:13:13.246Z,79.07
2022-11-05T00:15:33.719Z,78.59
2022-11-05T00:17:36.710Z,78.72
2022-11-05T00:19:40.617Z,78.81
2022-11-05T00:22:00.672Z,78.76
2022-11-05T00:24:24.279Z,78.75
2022-11-05T00:26:27.027Z,78.82
2022-11-05T00:28:31.091Z,78.64
2022-11-05T00:30:33.671Z,78.97
2022-11-05T00:32:36.290Z,78.99
2022-11-05T00:34:40.204Z,78.95
2022-11-05T00:36:42.747Z,79.12
2022-11-05T00:38:45.281Z,78.70
2022-11-05T00:40:50.353Z,78.84
2022-11-05T00:43:11.132Z,79.23
2022-11-05T00:45:13.023Z,79.15
2022-11-05T00:47:33.062Z,79.09
2022-11-05T00:49:35.633Z,79.07
2022-11-05T00:51:39.538Z,79.49
2022-11-05T00:53:42.253Z,79.31
2022-11-05T00:55:46.697Z,79.36
2022-11-05T00:57:49.300Z,79.44
2022-11-05T00:59:51.918Z,79.60
2022-11-05T01:01:54.617Z,80.27
2022-11-05T01:03:57.287Z,80.14
2022-11-05T01:06:08.676Z,80.17
2022-11-05T01:08:13.129Z,79.48
2022-11-05T01:10:15.861Z,79.73
2022-11-05T01:12:18.434Z,79.80
2022-11-05T01:14:21.004Z,79.93
2022-11-05T01:16:23.563Z,80.11
2022-11-05T01:18:26.218Z,79.90
2022-11-05T01:20:28.817Z,79.79
2022-11-05T01:22:31.510Z,79.85
2022-11-05T01:24:35.485Z,79.73
2022-11-05T01:26:38.031Z,80.31
2022-11-05T01:28:40.684Z,80.11
2022-11-05T01:30:43.310Z,79.98
2022-11-05T01:32:45.977Z,79.91
2022-11-05T01:34:49.227Z,79.94
2022-11-05T01:36:51.807Z,79.43
2022-11-05T01:38:54.569Z,79.47
2022-11-05T01:40:58.495Z,79.20
2022-11-05T01:43:01.060Z,79.77
2022-11-05T01:45:12.418Z,79.37
2022-11-05T01:47:28.222Z,79.64
2022-11-05T01:49:34.923Z,79.67
2022-11-05T01:51:41.136Z,79.97
2022-11-05T01:53:48.528Z,79.30
2022-11-05T01:55:58.005Z,79.53
2022-11-05T01:58:03.683Z,79.77
2022-11-05T02:00:07.361Z,79.17
2022-11-05T02:02:10.262Z,79.71
2022-11-05T02:04:18.106Z,79.53
2022-11-05T02:06:21.300Z,79.44
2022-11-05T02:08:45.705Z,79.12
2022-11-05T02:10:49.525Z,78.61
2022-11-05T02:12:52.316Z,78.63
2022-11-05T02:14:56.399Z,78.72
2022-11-05T02:17:06.242Z,79.21
2022-11-05T02:19:35.703Z,79.51
2022-11-05T02:22:14.027Z,79.63
2022-11-05T02:24:39.063Z,79.96
2022-11-05T02:27:14.038Z,79.93
2022-11-05T02:29:57.316Z,79.75
2022-11-05T02:32:06.451Z,79.71
2022-11-05T02:34:17.559Z,79.58
2022-11-05T02:36:32.253Z,79.85
2022-11-05T02:38:41.707Z,80.02
2022-11-05T02:40:51.654Z,80.42
2022-11-05T02:43:03.268Z,80.40
2022-11-05T02:45:13.272Z,80.24
2022-11-05T02:47:26.264Z,80.67
2022-11-05T02:49:39.334Z,80.92
2022-11-05T02:51:49.068Z,81.00
2022-11-05T02:53:58.982Z,81.01
2022-11-05T02:56:06.586Z,80.56
2022-11-05T02:58:09.741Z,80.18
2022-11-05T03:00:45.139Z,80.82
2022-11-05T03:02:49.216Z,80.88
2022-11-05T03:04:51.954Z,81.04
2022-11-05T03:07:29.437Z,80.95
2022-11-05T03:09:59.370Z,80.82
2022-11-05T03:12:18.479Z,81.27
2022-11-05T03:14:25.480Z,80.54
2022-11-05T03:16:35.515Z,80.51
2022-11-05T03:18:43.224Z,80.63
2022-11-05T03:20:51.015Z,80.08
2022-11-05T03:22:59.993Z,79.95
2022-11-05T03:25:09.317Z,79.89
2022-11-05T03:27:16.219Z,80.38
2022-11-05T03:29:23.988Z,80.55
2022-11-05T03:31:30.057Z,80.79
2022-11-05T03:33:35.575Z,81.04
2022-11-05T03:35:42.519Z,80.97
2022-11-05T03:37:48.218Z,80.74
2022-11-05T03:39:55.172Z,80.70
2022-11-05T03:41:59.598Z,80.54
2022-11-05T03:44:07.401Z,80.43
2022-11-05T03:46:13.358Z,80.29
2022-11-05T03:48:18.885Z,80.79
2022-11-05T03:50:24.571Z,80.80
2022-11-05T03:52:34.406Z,80.51
2022-11-05T03:54:37.478Z,81.16
2022-11-05T03:56:46.835Z,80.63
2022-11-05T03:58:53.385Z,80.88
2022-11-05T04:01:02.085Z,81.06
2022-11-05T04:03:04.775Z,80.93
2022-11-05T04:05:07.924Z,80.67
2022-11-05T04:07:28.915Z,81.22
2022-11-05T04:10:04.699Z,80.82
2022-11-05T04:12:24.790Z,81.11
2022-11-05T04:14:27.489Z,81.32
2022-11-05T04:16:47.820Z,81.26
2022-11-05T04:18:50.355Z,81.07
2022-11-05T04:21:10.440Z,81.63
2022-11-05T04:23:42.066Z,81.23
2022-11-05T04:25:46.396Z,81.66
2022-11-05T04:27:49.674Z,80.79
2022-11-05T04:30:10.107Z,81.53
2022-11-05T04:32:12.717Z,81.88
2022-11-05T04:34:16.163Z,82.09
2022-11-05T04:36:19.563Z,82.03
2022-11-05T04:38:22.128Z,82.46
2022-11-05T04:40:24.909Z,82.33
2022-11-05T04:42:29.292Z,81.94
2022-11-05T04:44:31.922Z,82.27
2022-11-05T04:46:34.522Z,82.29
2022-11-05T04:48:37.660Z,82.35
2022-11-05T04:50:40.317Z,81.52
2022-11-05T04:52:43.081Z,81.51
2022-11-05T04:54:45.666Z,81.53
2022-11-05T04:56:48.197Z,82.14
2022-11-05T04:58:52.774Z,80.63
2022-11-05T05:00:55.381Z,80.65
2022-11-05T05:02:58.055Z,81.32
2022-11-05T05:05:00.654Z,81.30
2022-11-05T05:07:03.258Z,81.37
2022-11-05T05:09:05.821Z,81.31
2022-11-05T05:11:11.953Z,81.89
2022-11-05T05:13:14.503Z,82.31
2022-11-05T05:15:18.789Z,81.75
2022-11-05T05:17:21.393Z,81.72
2022-11-05T05:19:25.122Z,81.94
2022-11-05T05:21:38.721Z,81.93
2022-11-05T05:23:41.229Z,82.81
2022-11-05T05:25:43.771Z,82.19
2022-11-05T05:27:46.346Z,82.51
2022-11-05T05:29:48.907Z,82.21
2022-11-05T05:31:52.812Z,82.54
2022-11-05T05:33:55.773Z,82.76
2022-11-05T05:35:58.838Z,82.44
2022-11-05T05:38:01.346Z,82.81
2022-11-05T05:40:04.291Z,82.91
2022-11-05T05:42:06.879Z,82.91
2022-11-05T05:44:09.463Z,82.40
2022-11-05T05:46:14.770Z,82.15
2022-11-05T05:48:18.697Z,82.05
2022-11-05T05:50:21.564Z,82.49
2022-11-05T05:52:24.107Z,82.47
2022-11-05T05:54:31.919Z,82.75
2022-11-05T05:56:35.326Z,82.67
2022-11-05T05:58:39.904Z,82.54
2022-11-05T06:00:42.473Z,82.24
2022-11-05T06:02:45.188Z,82.71
2022-11-05T06:04:49.348Z,82.36
2022-11-05T06:06:51.916Z,82.80
2022-11-05T06:08:55.828Z,82.38
2022-11-05T06:10:58.879Z,82.68
2022-11-05T06:13:01.899Z,82.30
2022-11-05T06:15:05.261Z,82.71
2022-11-05T06:17:07.987Z,82.55
2022-11-05T06:19:10.550Z,82.18
2022-11-05T06:21:16.199Z,82.61
2022-11-05T06:23:18.739Z,82.79
2022-11-05T06:25:21.314Z,82.66
2022-11-05T06:27:23.900Z,82.22
2022-11-05T06:29:26.482Z,82.53
2022-11-05T06:31:29.123Z,82.75
2022-11-05T06:33:34.733Z,82.17
2022-11-05T06:35:37.338Z,82.33
2022-11-05T06:37:41.358Z,82.19
2022-11-05T06:39:43.916Z,82.57
2022-11-05T06:42:11.956Z,82.67
2022-11-05T06:44:09.008Z,82.67
2022-11-05T06:46:12.234Z,82.60
2022-11-05T06:48:14.823Z,82.83
2022-11-05T06:50:17.600Z,83.28
2022-11-05T06:52:20.906Z,83.50
2022-11-05T06:54:24.847Z,83.74
2022-11-05T06:56:27.636Z,83.59
2022-11-05T06:58:30.864Z,83.78
2022-11-05T07:00:33.801Z,83.55
2022-11-05T07:02:36.420Z,83.53
2022-11-05T07:04:38.992Z,83.46
2022-11-05T07:06:41.631Z,82.98
2022-11-05T07:08:44.266Z,83.43
2022-11-05T07:10:48.945Z,82.74
2022-11-05T07:12:51.566Z,82.48
2022-11-05T07:14:54.087Z,82.01
2022-11-05T07:16:58.000Z,82.36
2022-11-05T07:19:00.830Z,82.87
2022-11-05T07:21:03.446Z,82.85
2022-11-05T07:23:08.305Z,82.55
2022-11-05T07:25:11.084Z,81.00
2022-11-05T07:27:15.063Z,81.37
2022-11-05T07:29:17.667Z,81.42
2022-11-05T07:31:20.226Z,81.12
2022-11-05T07:33:22.760Z,80.47
2022-11-05T07:35:25.629Z,80.75
2022-11-05T07:37:28.175Z,81.29
2022-11-05T07:39:30.752Z,81.43
2022-11-05T07:41:33.313Z,81.64
2022-11-05T07:43:37.270Z,81.41
2022-11-05T07:45:39.864Z,81.72
2022-11-05T07:47:47.644Z,82.09
2022-11-05T07:49:50.214Z,82.36
2022-11-05T07:51:53.589Z,82.57
2022-11-05T07:53:56.159Z,82.89
2022-11-05T07:55:58.922Z,82.93
2022-11-05T07:58:01.581Z,83.12
2022-11-05T08:00:06.433Z,83.47
2022-11-05T08:02:11.158Z,83.17
2022-11-05T08:04:13.953Z,83.41
2022-11-05T08:06:16.514Z,83.02
2022-11-05T08:08:20.510Z,83.06
2022-11-05T08:10:23.495Z,82.94
2022-11-05T08:12:26.057Z,82.68
2022-11-05T08:14:28.600Z,82.83
2022-11-05T08:16:32.519Z,83.17
2022-11-05T08:18:35.070Z,82.28
2022-11-05T08:20:38.437Z,82.78
2022-11-05T08:22:43.371Z,82.87
2022-11-05T08:24:45.964Z,82.40
2022-11-05T08:26:48.488Z,82.94
2022-11-05T08:28:51.057Z,82.76
2022-11-05T08:30:55.485Z,82.50
2022-11-05T08:33:00.833Z,82.26
2022-11-05T08:35:03.416Z,82.61
2022-11-05T08:37:06.030Z,82.51
2022-11-05T08:39:14.305Z,82.41
2022-11-05T08:41:19.311Z,82.57
2022-11-05T08:43:21.928Z,82.72
2022-11-05T08:45:24.850Z,82.63
2022-11-05T08:47:27.427Z,83.13
2022-11-05T08:49:31.330Z,83.12
2022-11-05T08:51:33.892Z,82.99
2022-11-05T08:53:36.413Z,83.04
2022-11-05T08:55:39.374Z,82.52
2022-11-05T08:57:41.961Z,82.62
2022-11-05T08:59:44.542Z,82.46
2022-11-05T09:01:47.321Z,82.28
2022-11-05T09:03:52.264Z,82.78
2022-11-05T09:05:56.150Z,82.37
2022-11-05T09:08:01.305Z,82.48
2022-11-05T09:10:04.582Z,81.84
2022-11-05T09:12:12.673Z,81.76
2022-11-05T09:14:15.583Z,81.86
2022-11-05T09:16:21.423Z,82.37
2022-11-05T09:18:24.015Z,82.03
2022-11-05T09:20:26.588Z,82.44
2022-11-05T09:22:30.838Z,81.96
2022-11-05T09:24:33.387Z,82.08
2022-11-05T09:26:36.002Z,81.86
2022-11-05T09:28:38.879Z,81.86
2022-11-05T09:30:42.625Z,81.99
2022-11-05T09:32:45.183Z,82.26
2022-11-05T09:34:48.945Z,82.04
2022-11-05T09:36:51.504Z,82.32
2022-11-05T09:38:55.422Z,81.98
2022-11-05T09:41:04.364Z,81.39
2022-11-05T09:43:07.709Z,80.94
2022-11-05T09:45:16.219Z,80.93
2022-11-05T09:47:24.719Z,80.65
2022-11-05T09:49:30.269Z,80.74
2022-11-05T09:51:34.119Z,78.81
2022-11-05T09:53:41.078Z,78.09
2022-11-05T09:55:48.900Z,78.53
2022-11-05T09:57:55.192Z,78.22
2022-11-05T10:00:00.449Z,79.01
2022-11-05T10:02:12.302Z,78.97
2022-11-05T10:04:17.531Z,78.25
2022-11-05T10:06:22.344Z,78.55
2022-11-05T10:08:29.371Z,78.57
2022-11-05T10:10:40.780Z,78.55
2022-11-05T10:12:48.991Z,78.75
2022-11-05T10:15:11.513Z,78.76
2022-11-05T10:17:22.288Z,78.73
2022-11-05T10:19:27.183Z,79.12
2022-11-05T10:21:59.722Z,79.35
2022-11-05T10:23:53.523Z,78.13
2022-11-05T10:25:58.769Z,77.70
2022-11-05T10:28:05.589Z,77.23
2022-11-05T10:30:10.817Z,76.54
2022-11-05T10:32:18.967Z,77.26
2022-11-05T10:34:24.587Z,78.17
2022-11-05T10:36:31.918Z,78.47
2022-11-05T10:38:34.739Z,78.46
2022-11-05T10:40:47.788Z,77.94
2022-11-05T10:43:00.021Z,77.57
2022-11-05T10:45:13.862Z,77.55
2022-11-05T10:47:40.716Z,76.32
2022-11-05T10:49:56.468Z,75.75
2022-11-05T10:52:01.448Z,75.68
2022-11-05T10:54:12.612Z,75.50
2022-11-05T10:56:34.014Z,75.53
2022-11-05T10:58:38.965Z,76.14
2022-11-05T11:00:44.301Z,76.09
2022-11-05T11:02:50.622Z,75.56
2022-11-05T11:04:54.637Z,75.30
2022-11-05T11:06:59.695Z,75.47
2022-11-05T11:09:04.782Z,75.74
2022-11-05T11:11:11.371Z,75.69
2022-11-05T11:13:21.530Z,75.80
2022-11-05T11:15:27.558Z,75.40
2022-11-05T11:17:33.252Z,75.41
2022-11-05T11:19:37.382Z,74.54
2022-11-05T11:21:41.627Z,75.00
2022-11-05T11:23:54.050Z,74.37
2022-11-05T11:26:01.613Z,74.73
2022-11-05T11:28:06.722Z,74.29
2022-11-05T11:30:19.014Z,73.18
2022-11-05T11:32:22.938Z,73.49
2022-11-05T11:34:30.898Z,72.73
2022-11-05T11:36:36.659Z,73.09
2022-11-05T11:38:40.341Z,73.21
2022-11-05T11:40:43.408Z,72.90
2022-11-05T11:42:48.400Z,72.45
2022-11-05T11:44:52.438Z,71.87
2022-11-05T11:46:58.519Z,71.82
2022-11-05T11:49:01.347Z,71.49
2022-11-05T11:51:29.969Z,71.41
2022-11-05T11:53:35.687Z,71.93
2022-11-05T11:55:38.268Z,71.44
2022-11-05T11:57:45.388Z,70.92
2022-11-05T12:00:07.871Z,71.29
2022-11-05T12:02:42.997Z,71.68
2022-11-05T12:05:11.292Z,71.70
2022-11-05T12:07:33.463Z,72.52
2022-11-05T12:09:55.944Z,72.57
2022-11-05T12:12:05.951Z,73.02
2022-11-05T12:14:23.793Z,73.15
2022-11-05T12:16:37.651Z,73.62
2022-11-05T12:18:48.848Z,74.01
2022-11-05T12:21:06.072Z,74.34
2022-11-05T12:23:20.428Z,74.75
2022-11-05T12:25:28.900Z,74.36
2022-11-05T12:27:45.933Z,74.22
2022-11-05T12:29:58.489Z,74.15
2022-11-05T12:32:20.675Z,73.67
2022-11-05T12:34:40.064Z,72.98
2022-11-05T12:36:56.921Z,73.19
2022-11-05T12:39:29.064Z,72.90
2022-11-05T12:41:33.773Z,73.62
2022-11-05T12:43:45.448Z,74.27
2022-11-05T12:45:57.432Z,74.23
2022-11-05T12:48:12.859Z,74.28
2022-11-05T12:50:23.312Z,75.04
2022-11-05T12:52:50.675Z,74.51
2022-11-05T12:55:04.040Z,75.51
2022-11-05T12:57:09.768Z,75.54
2022-11-05T12:59:20.330Z,76.12
2022-11-05T13:01:32.043Z,76.60
2022-11-05T13:03:43.299Z,77.13
2022-11-05T13:05:49.501Z,77.13
2022-11-05T13:07:59.254Z,77.57
2022-11-05T13:10:09.047Z,77.63
2022-11-05T13:12:14.363Z,77.90
2022-11-05T13:14:21.522Z,78.29
2022-11-05T13:16:30.369Z,78.38
2022-11-05T13:18:46.787Z,78.11
2022-11-05T13:20:53.087Z,76.94
2022-11-05T13:22:59.929Z,76.45
2022-11-05T13:25:11.515Z,76.81
2022-11-05T13:27:37.888Z,76.51
2022-11-05T13:29:46.397Z,76.38
2022-11-05T13:31:53.112Z,76.61
2022-11-05T13:33:57.181Z,76.79
2022-11-05T13:36:23.066Z,76.94
2022-11-05T13:38:44.891Z,77.11
2022-11-05T13:41:02.147Z,77.14
2022-11-05T13:43:28.305Z,77.55
2022-11-05T13:46:05.606Z,77.56
2022-11-05T13:48:28.670Z,77.71
2022-11-05T13:50:50.255Z,77.22
2022-11-05T13:53:09.975Z,76.38
2022-11-05T13:55:38.568Z,75.22
2022-11-05T13:57:56.941Z,74.66
2022-11-05T14:00:08.135Z,74.45
2022-11-05T14:02:16.752Z,74.08
2022-11-05T14:04:32.267Z,74.03
2022-11-05T14:06:37.434Z,73.59
2022-11-05T14:08:42.448Z,73.97
2022-11-05T14:10:46.883Z,74.19
2022-11-05T14:12:53.800Z,74.58
2022-11-05T14:15:02.238Z,74.41
2022-11-05T14:17:16.955Z,74.96
2022-11-05T14:19:34.455Z,75.37
2022-11-05T14:21:49.135Z,76.32
2022-11-05T14:23:54.059Z,76.33
2022-11-05T14:25:59.665Z,75.13
2022-11-05T14:28:04.017Z,74.86
2022-11-05T14:30:41.139Z,74.98
2022-11-05T14:32:48.610Z,75.94
2022-11-05T14:34:56.580Z,76.75
2022-11-05T14:37:25.490Z,77.49
2022-11-05T14:39:29.938Z,77.59
2022-11-05T14:41:32.630Z,77.56
2022-11-05T14:43:36.852Z,78.16
2022-11-05T14:45:41.497Z,77.87
2022-11-05T14:47:51.335Z,77.94
2022-11-05T14:49:59.167Z,78.38
2022-11-05T14:52:08.723Z,78.54
2022-11-05T14:54:21.327Z,78.05
2022-11-05T14:56:23.977Z,78.21
2022-11-05T14:58:30.352Z,78.51
2022-11-05T15:00:49.531Z,78.27
2022-11-05T15:02:58.114Z,78.37
2022-11-05T15:05:39.541Z,78.60
2022-11-05T15:07:42.194Z,78.87
2022-11-05T15:09:48.368Z,79.29
2022-11-05T15:12:04.073Z,78.84
2022-11-05T15:14:09.323Z,78.82
2022-11-05T15:16:20.528Z,78.49
2022-11-05T15:18:30.437Z,78.36
2022-11-05T15:20:40.138Z,78.59
2022-11-05T15:22:45.585Z,78.82
2022-11-05T15:24:48.647Z,79.08
2022-11-05T15:26:58.253Z,78.75
2022-11-05T15:29:02.409Z,78.53
2022-11-05T15:31:07.261Z,78.81
2022-11-05T15:33:20.087Z,78.79
2022-11-05T15:35:28.001Z,78.16
2022-11-05T15:37:30.615Z,78.38
2022-11-05T15:39:40.425Z,77.99
2022-11-05T15:41:44.098Z,77.97
2022-11-05T15:43:48.186Z,78.12
2022-11-05T15:46:02.082Z,77.08
2022-11-05T15:48:15.499Z,76.57
2022-11-05T15:50:18.145Z,74.23
2022-11-05T15:52:22.431Z,74.53
2022-11-05T15:54:30.399Z,73.89
2022-11-05T15:56:36.727Z,73.74
2022-11-05T15:58:46.408Z,73.93
2022-11-05T16:00:50.274Z,74.73
2022-11-05T16:02:55.802Z,75.85
2022-11-05T16:05:01.211Z,76.20
2022-11-05T16:07:10.035Z,76.46
2022-11-05T16:09:22.967Z,76.97
2022-11-05T16:11:27.173Z,77.33
2022-11-05T16:13:33.740Z,77.27
2022-11-05T16:15:36.319Z,77.20
2022-11-05T16:17:48.319Z,77.47
2022-11-05T16:19:51.566Z,77.65
2022-11-05T16:21:55.749Z,77.13
2022-11-05T16:24:00.581Z,77.12
2022-11-05T16:26:03.172Z,77.51
2022-11-05T16:28:08.130Z,77.24
2022-11-05T16:30:18.904Z,77.29
2022-11-05T16:32:30.295Z,77.50
2022-11-05T16:34:37.793Z,77.83
2022-11-05T16:36:40.420Z,78.00
2022-11-05T16:38:44.958Z,78.03
2022-11-05T16:40:47.545Z,78.05
2022-11-05T16:42:52.153Z,78.32
2022-11-05T16:44:56.176Z,78.61
2022-11-05T16:46:58.745Z,78.54
2022-11-05T16:49:01.298Z,78.15
2022-11-05T16:51:03.907Z,78.21
2022-11-05T16:53:06.522Z,78.34
2022-11-05T16:55:12.101Z,78.48
2022-11-05T16:57:23.930Z,78.44
2022-11-05T16:59:26.413Z,78.38
2022-11-05T17:01:29.158Z,78.09
2022-11-05T17:03:32.238Z,78.28
2022-11-05T17:05:34.871Z,78.47
2022-11-05T17:07:41.333Z,78.11
2022-11-05T17:09:44.315Z,78.15
2022-11-05T17:11:48.269Z,78.10
2022-11-05T17:13:51.034Z,77.87
2022-11-05T17:15:53.700Z,78.01
2022-11-05T17:17:56.534Z,78.11
2022-11-05T17:19:59.057Z,78.10
2022-11-05T17:22:01.679Z,78.07
2022-11-05T17:24:04.474Z,77.97
2022-11-05T17:26:09.140Z,78.16
2022-11-05T17:28:13.803Z,77.49
2022-11-05T17:30:17.174Z,77.57
2022-11-05T17:32:19.804Z,77.67
2022-11-05T17:34:22.421Z,77.71
2022-11-05T17:36:25.151Z,77.54
2022-11-05T17:38:28.210Z,77.35
2022-11-05T17:40:30.886Z,77.47
2022-11-05T17:42:33.692Z,76.74
2022-11-05T17:44:37.734Z,76.47
2022-11-05T17:46:40.315Z,76.92
2022-11-05T17:48:44.727Z,76.56
2022-11-05T17:50:49.392Z,76.93
2022-11-05T17:52:51.925Z,76.91
2022-11-05T17:54:54.669Z,76.75
2022-11-05T17:56:57.219Z,77.25
2022-11-05T17:59:01.099Z,76.88
2022-11-05T18:01:05.847Z,77.05
2022-11-05T18:03:08.537Z,77.07
2022-11-05T18:05:12.884Z,76.95
2022-11-05T18:07:15.481Z,76.74
2022-11-05T18:09:18.116Z,76.50
2022-11-05T18:11:20.816Z,76.91
2022-11-05T18:13:23.469Z,76.86
2022-11-05T18:15:28.432Z,76.81
2022-11-05T18:17:34.757Z,77.36
2022-11-05T18:20:14.204Z,77.18
2022-11-05T18:22:20.230Z,76.95
2022-11-05T18:24:23.254Z,76.80
2022-11-05T18:26:25.878Z,76.79
2022-11-05T18:28:31.020Z,76.53
2022-11-05T18:30:34.223Z,76.55
2022-11-05T18:32:38.206Z,76.60
2022-11-05T18:34:40.957Z,76.57
2022-11-05T18:36:44.745Z,76.92
2022-11-05T18:38:47.596Z,76.37
2022-11-05T18:40:50.225Z,76.45
2022-11-05T18:42:52.850Z,76.51
2022-11-05T18:44:55.549Z,75.99
2022-11-05T18:46:58.948Z,76.08
2022-11-05T18:49:03.265Z,76.09
2022-11-05T18:51:08.464Z,75.81
2022-11-05T18:53:14.003Z,76.38
2022-11-05T18:55:16.610Z,76.12
2022-11-05T18:57:19.835Z,76.01
2022-11-05T18:59:36.909Z,76.10
2022-11-05T19:01:41.515Z,76.32
2022-11-05T19:03:44.904Z,76.00
2022-11-05T19:05:48.954Z,75.83
2022-11-05T19:07:51.922Z,76.00
2022-11-05T19:09:54.569Z,75.62
2022-11-05T19:11:57.157Z,75.54
2022-11-05T19:14:00.096Z,75.56
2022-11-05T19:16:02.701Z,75.03
2022-11-05T19:18:05.329Z,75.01
2022-11-05T19:20:09.370Z,74.72
2022-11-05T19:22:13.278Z,74.50
2022-11-05T19:24:17.289Z,74.54
2022-11-05T19:26:28.405Z,74.09
2022-11-05T19:28:31.713Z,74.25
2022-11-05T19:30:34.288Z,74.50
2022-11-05T19:32:36.863Z,74.38
2022-11-05T19:34:39.414Z,74.59
2022-11-05T19:36:42.649Z,74.78
2022-11-05T19:38:46.902Z,74.84
2022-11-05T19:40:49.742Z,74.68
2022-11-05T19:42:52.567Z,74.76
2022-11-05T19:44:55.232Z,74.89
2022-11-05T19:46:57.994Z,74.84
2022-11-05T19:49:01.833Z,74.78
2022-11-05T19:51:06.323Z,74.47
2022-11-05T19:53:09.055Z,74.54
2022-11-05T19:55:13.140Z,74.48
2022-11-05T19:57:15.729Z,74.46
2022-11-05T19:59:18.638Z,74.25
2022-11-05T20:01:22.939Z,74.55
2022-11-05T20:03:25.708Z,74.62
2022-11-05T20:05:28.442Z,74.71
2022-11-05T20:07:31.516Z,74.77
2022-11-05T20:09:34.925Z,74.77
2022-11-05T20:11:39.893Z,74.38
2022-11-05T20:13:42.548Z,74.05
2022-11-05T20:15:46.215Z,74.15
2022-11-05T20:17:50.741Z,73.92
2022-11-05T20:19:53.478Z,73.61
2022-11-05T20:21:56.214Z,73.65
2022-11-05T20:23:59.362Z,73.47
2022-11-05T20:26:02.107Z,73.40
2022-11-05T20:28:06.553Z,72.81
2022-11-05T20:30:10.886Z,73.12
2022-11-05T20:32:14.307Z,72.93
2022-11-05T20:34:16.963Z,72.83
2022-11-05T20:36:22.067Z,73.09
2022-11-05T20:38:24.705Z,73.02
2022-11-05T20:40:27.581Z,73.63
2022-11-05T20:42:30.385Z,73.31
2022-11-05T20:44:34.467Z,73.24
2022-11-05T20:46:37.086Z,73.65
2022-11-05T20:48:39.717Z,73.36
2022-11-05T20:50:42.771Z,73.62
2022-11-05T20:52:45.936Z,73.74
2022-11-05T20:54:49.048Z,73.24
2022-11-05T20:56:51.929Z,73.60
2022-11-05T20:58:55.519Z,73.24
2022-11-05T21:00:59.577Z,73.29
2022-11-05T21:03:02.287Z,73.17
2022-11-05T21:05:07.429Z,73.12
2022-11-05T21:07:10.346Z,73.08
2022-11-05T21:09:13.165Z,72.82
2022-11-05T21:11:15.924Z,73.02
2022-11-05T21:13:19.015Z,72.54
2022-11-05T21:15:23.190Z,72.94
2022-11-05T21:17:27.130Z,72.99
2022-11-05T21:19:32.147Z,73.09
2022-11-05T21:21:40.020Z,73.05
2022-11-05T21:23:43.659Z,73.13
2022-11-05T21:25:46.512Z,72.83
2022-11-05T21:27:49.103Z,72.97
2022-11-05T21:29:53.017Z,73.00
2022-11-05T21:31:55.776Z,72.90
2022-11-05T21:33:59.724Z,72.87
2022-11-05T21:36:07.517Z,72.81
2022-11-05T21:38:10.810Z,72.59
2022-11-05T21:40:13.540Z,72.77
2022-11-05T21:42:16.130Z,72.68
2022-11-05T21:44:18.843Z,72.57
2022-11-05T21:46:21.866Z,72.60
2022-11-05T21:48:24.523Z,72.49
2022-11-05T21:50:42.485Z,72.25
2022-11-05T21:53:17.136Z,72.65
2022-11-05T21:55:37.598Z,72.72
2022-11-05T21:57:58.590Z,72.84
2022-11-05T22:00:02.049Z,73.06
2022-11-05T22:02:05.591Z,72.77
2022-11-05T22:04:08.340Z,72.49
2022-11-05T22:06:12.321Z,72.58
2022-11-05T22:08:15.291Z,72.80
2022-11-05T22:10:18.067Z,72.39
2022-11-05T22:12:21.020Z,72.35
2022-11-05T22:14:24.630Z,72.26
2022-11-05T22:16:27.394Z,72.28
2022-11-05T22:18:30.446Z,72.30
2022-11-05T22:20:33.021Z,72.15
2022-11-05T22:22:37.122Z,71.92
2022-11-05T22:24:40.772Z,71.62
2022-11-05T22:26:44.907Z,71.62
2022-11-05T22:28:47.581Z,71.89
2022-11-05T22:30:50.221Z,71.62
2022-11-05T22:32:52.797Z,71.97
2022-11-05T22:34:55.394Z,71.37
2022-11-05T22:36:57.993Z,71.37
2022-11-05T22:39:02.392Z,70.96
2022-11-05T22:41:08.529Z,71.54
2022-11-05T22:43:11.164Z,71.33
2022-11-05T22:45:13.756Z,71.32
2022-11-05T22:47:18.020Z,71.39
2022-11-05T22:49:20.792Z,71.48
2022-11-05T22:51:25.112Z,71.70
2022-11-05T22:53:27.678Z,71.58
2022-11-05T22:55:31.618Z,71.77
2022-11-05T22:57:34.241Z,71.63
2022-11-05T22:59:36.833Z,71.43
2022-11-05T23:01:39.618Z,71.69
2022-11-05T23:03:44.381Z,71.50
2022-11-05T23:05:46.990Z,71.15
2022-11-05T23:08:07.271Z,71.40
2022-11-05T23:10:27.892Z,71.63
2022-11-05T23:12:34.185Z,72.03
2022-11-05T23:14:37.376Z,72.14
2022-11-05T23:16:58.757Z,72.13
2022-11-05T23:19:18.838Z,71.99
2022-11-05T23:21:38.920Z,71.79
2022-11-05T23:23:59.349Z,71.77
2022-11-05T23:26:22.648Z,72.15
2022-11-05T23:28:26.686Z,72.31
2022-11-05T23:30:29.887Z,72.30
2022-11-05T23:32:32.833Z,72.26
2022-11-05T23:34:35.751Z,72.27
2022-11-05T23:36:56.059Z,72.00
2022-11-05T23:38:58.657Z,71.91
2022-11-05T23:41:19.974Z,71.71
2022-11-05T23:43:40.272Z,71.46
2022-11-05T23:46:02.566Z,71.41
2022-11-05T23:48:17.845Z,71.01
2022-11-05T23:50:20.474Z,71.06
2022-11-05T23:52:23.139Z,71.53
2022-11-05T23:54:25.781Z,71.31
2022-11-05T23:56:28.389Z,71.63
2022-11-05T23:58:31.102Z,71.42
